createdAt,value
2019-04-06T00:02:15.670Z,74.87
2019-04-06T00:04:42.104Z,69.30
2019-04-06T00:07:08.747Z,71.10
2019-04-06T00:09:35.350Z,77.77
2019-04-06T00:12:01.981Z,65.70
2019-04-06T00:14:30.587Z,76.07
2019-04-06T00:16:56.922Z,78.63
2019-04-06T00:19:23.255Z,73.30
2019-04-06T00:21:49.877Z,87.13
2019-04-06T00:24:16.218Z,78.83
2019-04-06T00:26:42.676Z,79.40
2019-04-06T00:29:09.372Z,74.57
2019-04-06T00:31:36.010Z,70.07
2019-04-06T00:34:02.575Z,73.73
2019-04-06T00:36:29.179Z,73.43
2019-04-06T00:38:55.498Z,74.03
2019-04-06T00:41:22.146Z,70.40
2019-04-06T00:43:48.782Z,66.40
2019-04-06T00:46:15.413Z,66.17
2019-04-06T00:48:41.732Z,61.60
2019-04-06T00:51:08.036Z,62.33
2019-04-06T00:53:34.344Z,52.37
2019-04-06T00:56:00.970Z,60.40
2019-04-06T00:58:27.301Z,67.33
2019-04-06T01:00:53.676Z,52.83
2019-04-06T01:03:20.049Z,75.53
2019-04-06T01:05:46.719Z,63.10
2019-04-06T01:08:13.367Z,60.73
2019-04-06T01:10:39.721Z,63.30
2019-04-06T01:13:06.028Z,53.77
2019-04-06T01:15:32.703Z,50.80
2019-04-06T01:17:59.387Z,52.90
2019-04-06T01:20:25.782Z,49.20
2019-04-06T01:22:52.487Z,43.00
2019-04-06T01:25:18.873Z,49.57
2019-04-06T01:27:45.208Z,48.87
2019-04-06T01:30:12.084Z,46.07
2019-04-06T01:32:38.706Z,48.07
2019-04-06T01:35:05.649Z,50.00
2019-04-06T01:37:32.416Z,59.60
2019-04-06T01:39:59.197Z,63.13
2019-04-06T01:42:25.591Z,67.20
2019-04-06T01:44:51.963Z,71.17
2019-04-06T01:47:18.320Z,74.27
2019-04-06T01:49:44.692Z,63.40
2019-04-06T01:52:11.005Z,57.80
2019-04-06T01:54:37.330Z,61.97
2019-04-06T01:57:03.742Z,56.20
2019-04-06T01:59:30.386Z,57.20
2019-04-06T02:02:01.873Z,59.80
2019-04-06T02:04:28.181Z,45.10
2019-04-06T02:06:54.527Z,49.10
2019-04-06T02:09:20.859Z,57.00
2019-04-06T02:11:47.193Z,52.90
2019-04-06T02:14:13.499Z,50.07
2019-04-06T02:16:39.858Z,45.97
2019-04-06T02:19:06.457Z,43.20
2019-04-06T02:21:32.790Z,36.93
2019-04-06T02:23:59.433Z,44.93
2019-04-06T02:26:30.958Z,41.67
2019-04-06T02:28:54.040Z,43.30
2019-04-06T02:31:38.781Z,56.03
2019-04-06T02:34:07.290Z,48.83
2019-04-06T02:36:36.367Z,54.30
2019-04-06T02:39:06.594Z,51.17
2019-04-06T02:41:46.827Z,54.80
2019-04-06T02:44:13.366Z,57.70
2019-04-06T02:46:39.767Z,53.43
2019-04-06T02:49:06.143Z,60.40
2019-04-06T02:51:32.958Z,56.50
2019-04-06T02:53:59.313Z,58.53
2019-04-06T02:56:25.914Z,79.50
2019-04-06T02:58:52.322Z,69.20
2019-04-06T03:01:18.702Z,67.63
2019-04-06T03:03:45.023Z,55.93
2019-04-06T03:06:11.586Z,64.60
2019-04-06T03:08:38.455Z,49.57
2019-04-06T03:11:04.756Z,53.70
2019-04-06T03:13:31.480Z,53.43
2019-04-06T03:15:57.878Z,45.23
2019-04-06T03:18:24.212Z,43.23
2019-04-06T03:20:50.969Z,40.27
2019-04-06T03:23:17.657Z,36.30
2019-04-06T03:25:44.308Z,45.17
2019-04-06T03:28:10.970Z,40.50
2019-04-06T03:30:37.654Z,42.60
2019-04-06T03:33:04.034Z,45.20
2019-04-06T03:35:30.967Z,43.90
2019-04-06T03:37:57.900Z,48.37
2019-04-06T03:40:24.558Z,52.00
2019-04-06T03:42:50.927Z,49.23
2019-04-06T03:45:17.402Z,55.63
2019-04-06T03:47:43.724Z,48.60
2019-04-06T03:50:10.176Z,48.30
2019-04-06T03:52:36.471Z,42.87
2019-04-06T03:55:05.893Z,49.40
2019-04-06T03:57:32.249Z,45.57
2019-04-06T03:59:58.586Z,48.57
2019-04-06T04:02:25.140Z,50.97
2019-04-06T04:04:51.450Z,49.77
2019-04-06T04:07:17.804Z,45.93
2019-04-06T04:09:44.522Z,52.07
2019-04-06T04:12:31.019Z,53.60
2019-04-06T04:14:57.668Z,50.70
2019-04-06T04:17:24.421Z,50.93
2019-04-06T04:19:51.047Z,52.63
2019-04-06T04:22:17.371Z,50.10
2019-04-06T04:24:43.715Z,48.20
2019-04-06T04:27:10.050Z,49.30
2019-04-06T04:29:36.438Z,46.97
2019-04-06T04:32:02.753Z,45.90
2019-04-06T04:34:29.081Z,51.77
2019-04-06T04:36:55.497Z,56.03
2019-04-06T04:39:21.823Z,65.73
2019-04-06T04:41:48.386Z,91.43
2019-04-06T04:44:15.012Z,71.80
2019-04-06T04:46:41.441Z,87.43
2019-04-06T04:49:08.126Z,75.33
2019-04-06T04:51:37.223Z,70.77
2019-04-06T04:54:03.832Z,68.13
2019-04-06T04:56:30.194Z,76.33
2019-04-06T04:58:56.586Z,86.17
2019-04-06T05:01:22.981Z,76.77
2019-04-06T05:03:49.330Z,63.03
2019-04-06T05:06:17.619Z,69.03
2019-04-06T05:08:44.644Z,70.33
2019-04-06T05:11:10.964Z,57.80
2019-04-06T05:13:37.282Z,55.50
2019-04-06T05:16:12.478Z,47.83
2019-04-06T05:18:41.165Z,50.20
2019-04-06T05:21:09.822Z,52.43
2019-04-06T05:23:37.698Z,48.23
2019-04-06T05:26:05.385Z,43.70
2019-04-06T05:28:32.153Z,45.43
2019-04-06T05:30:58.528Z,49.83
2019-04-06T05:33:25.150Z,40.60
2019-04-06T05:35:52.385Z,34.27
2019-04-06T05:38:18.729Z,41.33
2019-04-06T05:40:45.081Z,34.10
2019-04-06T05:43:11.690Z,38.17
2019-04-06T05:45:38.057Z,37.83
2019-04-06T05:48:05.350Z,37.23
2019-04-06T05:50:31.698Z,33.27
2019-04-06T05:52:58.339Z,34.83
2019-04-06T05:55:25.069Z,33.43
2019-04-06T05:58:02.349Z,33.10
2019-04-06T06:00:20.221Z,40.63
2019-04-06T06:02:46.653Z,39.63
2019-04-06T06:05:14.044Z,39.63
2019-04-06T06:07:40.405Z,37.93
2019-04-06T06:10:06.914Z,39.40
2019-04-06T06:12:33.351Z,30.37
2019-04-06T06:14:59.647Z,37.83
2019-04-06T06:17:25.977Z,33.63
2019-04-06T06:19:52.752Z,37.17
2019-04-06T06:22:19.442Z,29.53
2019-04-06T06:24:45.814Z,41.83
2019-04-06T06:27:12.425Z,43.70
2019-04-06T06:29:38.749Z,34.30
2019-04-06T06:32:05.151Z,33.13
2019-04-06T06:34:31.822Z,34.67
2019-04-06T06:36:58.181Z,34.10
2019-04-06T06:39:24.902Z,35.60
2019-04-06T06:41:51.533Z,42.30
2019-04-06T06:44:17.858Z,33.87
2019-04-06T06:46:44.208Z,34.93
2019-04-06T06:49:10.525Z,33.57
2019-04-06T06:51:37.300Z,34.53
2019-04-06T06:54:04.099Z,36.47
2019-04-06T06:56:30.475Z,31.13
2019-04-06T06:58:56.876Z,32.13
2019-04-06T07:01:23.243Z,33.20
2019-04-06T07:03:49.749Z,26.83
2019-04-06T07:06:16.184Z,26.30
2019-04-06T07:08:42.543Z,27.87
2019-04-06T07:11:08.984Z,24.20
2019-04-06T07:13:35.289Z,30.20
2019-04-06T07:16:01.641Z,28.53
2019-04-06T07:18:28.461Z,20.80
2019-04-06T07:20:55.281Z,21.07
2019-04-06T07:23:21.937Z,27.40
2019-04-06T07:25:57.725Z,32.30
2019-04-06T07:28:16.864Z,22.80
2019-04-06T07:30:43.356Z,25.97
2019-04-06T07:33:10.026Z,24.67
2019-04-06T07:35:36.693Z,28.33
2019-04-06T07:38:03.387Z,24.67
2019-04-06T07:40:30.057Z,26.13
2019-04-06T07:42:56.497Z,24.33
2019-04-06T07:45:23.006Z,22.53
2019-04-06T07:47:49.977Z,27.13
2019-04-06T07:50:16.851Z,26.60
2019-04-06T07:52:44.345Z,29.20
2019-04-06T07:55:10.868Z,32.43
2019-04-06T07:57:37.354Z,25.93
2019-04-06T08:00:06.653Z,23.50
2019-04-06T08:02:33.493Z,27.53
2019-04-06T08:04:59.794Z,24.50
2019-04-06T08:07:26.466Z,27.00
2019-04-06T08:09:54.384Z,27.13
2019-04-06T08:12:21.219Z,25.90
2019-04-06T08:14:48.153Z,23.30
2019-04-06T08:17:14.604Z,22.90
2019-04-06T08:19:41.342Z,20.17
2019-04-06T08:22:07.761Z,26.83
2019-04-06T08:24:34.450Z,25.60
2019-04-06T08:27:01.362Z,22.80
2019-04-06T08:29:27.962Z,22.93
2019-04-06T08:31:54.526Z,30.87
2019-04-06T08:34:21.494Z,18.00
2019-04-06T08:36:48.247Z,25.60
2019-04-06T08:39:14.656Z,19.73
2019-04-06T08:41:41.416Z,22.97
2019-04-06T08:44:08.168Z,22.83
2019-04-06T08:46:34.865Z,25.30
2019-04-06T08:49:01.536Z,24.40
2019-04-06T08:51:29.196Z,26.80
2019-04-06T08:53:55.514Z,21.87
2019-04-06T08:56:22.233Z,23.60
2019-04-06T08:58:49.605Z,29.90
2019-04-06T09:01:16.036Z,32.30
2019-04-06T09:03:42.346Z,45.47
2019-04-06T09:06:08.727Z,26.00
2019-04-06T09:08:35.062Z,23.27
2019-04-06T09:11:01.633Z,34.33
2019-04-06T09:13:28.069Z,20.67
2019-04-06T09:15:54.727Z,38.97
2019-04-06T09:18:21.588Z,21.37
2019-04-06T09:20:48.242Z,25.07
2019-04-06T09:23:14.668Z,29.03
2019-04-06T09:25:41.316Z,25.60
2019-04-06T09:28:07.675Z,23.37
2019-04-06T09:30:33.981Z,27.70
2019-04-06T09:33:00.719Z,24.33
2019-04-06T09:35:27.087Z,23.47
2019-04-06T09:37:53.794Z,27.43
2019-04-06T09:40:20.352Z,21.20
2019-04-06T09:42:47.074Z,30.23
2019-04-06T09:45:30.843Z,27.53
2019-04-06T09:47:59.193Z,23.43
2019-04-06T09:50:30.083Z,28.37
2019-04-06T09:52:58.689Z,23.67
2019-04-06T09:55:29.846Z,24.40
2019-04-06T09:58:13.368Z,24.73
2019-04-06T10:00:42.563Z,22.63
2019-04-06T10:03:13.747Z,24.53
2019-04-06T10:05:50.976Z,29.60
2019-04-06T10:08:31.467Z,18.83
2019-04-06T10:11:00.062Z,30.67
2019-04-06T10:13:43.524Z,25.27
2019-04-06T10:16:20.897Z,19.13
2019-04-06T10:18:52.251Z,23.23
2019-04-06T10:21:21.386Z,22.50
2019-04-06T10:24:05.176Z,22.43
2019-04-06T10:26:36.870Z,22.63
2019-04-06T10:29:05.181Z,20.20
2019-04-06T10:31:31.878Z,19.50
2019-04-06T10:34:05.817Z,24.63
2019-04-06T10:36:34.058Z,20.67
2019-04-06T10:39:01.532Z,20.50
2019-04-06T10:41:34.535Z,20.63
2019-04-06T10:44:09.863Z,21.50
2019-04-06T10:46:38.566Z,22.03
2019-04-06T10:49:25.901Z,17.97
2019-04-06T10:51:58.313Z,19.53
2019-04-06T10:54:36.649Z,17.87
2019-04-06T10:57:11.196Z,18.77
2019-04-06T11:00:00.202Z,20.60
2019-04-06T11:02:36.120Z,17.73
2019-04-06T11:05:06.845Z,19.37
2019-04-06T11:07:51.973Z,23.80
2019-04-06T11:10:30.218Z,18.03
2019-04-06T11:13:11.807Z,23.33
2019-04-06T11:15:43.112Z,17.53
2019-04-06T11:18:28.170Z,21.50
2019-04-06T11:20:56.652Z,21.87
2019-04-06T11:23:30.614Z,16.70
2019-04-06T11:25:57.393Z,17.20
2019-04-06T11:28:28.864Z,18.37
2019-04-06T11:31:00.023Z,17.93
2019-04-06T11:33:37.618Z,17.70
2019-04-06T11:36:24.424Z,21.53
2019-04-06T11:39:07.753Z,19.87
2019-04-06T11:41:37.470Z,20.20
2019-04-06T11:44:08.751Z,18.90
2019-04-06T11:46:43.352Z,26.53
2019-04-06T11:49:11.681Z,19.13
2019-04-06T11:51:56.426Z,21.90
2019-04-06T11:54:24.724Z,15.63
2019-04-06T11:56:59.101Z,17.13
2019-04-06T11:59:43.860Z,14.23
2019-04-06T12:02:19.578Z,19.53
2019-04-06T12:04:57.821Z,15.03
2019-04-06T12:07:26.174Z,16.03
2019-04-06T12:10:00.540Z,15.07
2019-04-06T12:12:36.036Z,18.90
2019-04-06T12:15:06.141Z,16.90
2019-04-06T12:17:37.700Z,23.47
2019-04-06T12:20:19.643Z,17.93
2019-04-06T12:22:58.282Z,25.20
2019-04-06T12:25:30.817Z,30.50
2019-04-06T12:28:00.529Z,19.80
2019-04-06T12:30:45.762Z,17.43
2019-04-06T12:33:23.132Z,17.40
2019-04-06T12:36:04.851Z,20.67
2019-04-06T12:38:37.149Z,19.43
2019-04-06T12:41:18.279Z,20.60
2019-04-06T12:43:47.780Z,16.90
2019-04-06T12:46:16.350Z,15.93
2019-04-06T12:48:56.682Z,17.87
2019-04-06T12:51:25.164Z,20.77
2019-04-06T12:53:59.579Z,19.03
2019-04-06T12:56:33.727Z,16.60
2019-04-06T12:59:06.298Z,21.00
2019-04-06T13:01:51.344Z,20.13
2019-04-06T13:04:23.952Z,33.40
2019-04-06T13:06:59.453Z,21.87
2019-04-06T13:09:44.568Z,25.23
2019-04-06T13:12:39.249Z,21.17
2019-04-06T13:15:08.224Z,20.43
2019-04-06T13:17:53.900Z,19.23
2019-04-06T13:20:39.257Z,22.83
2019-04-06T13:23:10.703Z,22.40
2019-04-06T13:25:55.446Z,23.93
2019-04-06T13:28:24.329Z,21.93
2019-04-06T13:31:06.369Z,23.17
2019-04-06T13:33:35.044Z,20.90
2019-04-06T13:36:03.805Z,18.60
2019-04-06T13:38:48.982Z,18.57
2019-04-06T13:41:21.698Z,20.40
2019-04-06T13:44:07.003Z,23.40
2019-04-06T13:46:41.058Z,16.77
2019-04-06T13:49:22.377Z,22.43
2019-04-06T13:51:54.080Z,17.57
2019-04-06T13:54:31.552Z,18.43
2019-04-06T13:57:00.552Z,15.63
2019-04-06T13:59:29.091Z,13.43
2019-04-06T14:02:01.498Z,17.00
2019-04-06T14:04:29.891Z,12.13
2019-04-06T14:06:56.281Z,13.80
2019-04-06T14:09:41.262Z,15.20
2019-04-06T14:12:26.175Z,13.07
2019-04-06T14:14:54.387Z,12.73
2019-04-06T14:17:22.911Z,12.13
2019-04-06T14:19:54.154Z,11.60
2019-04-06T14:22:22.742Z,13.03
2019-04-06T14:24:51.475Z,13.27
2019-04-06T14:27:25.662Z,14.47
2019-04-06T14:30:02.855Z,12.63
2019-04-06T14:32:48.991Z,12.53
2019-04-06T14:35:32.489Z,12.13
2019-04-06T14:38:01.399Z,11.07
2019-04-06T14:40:43.008Z,15.20
2019-04-06T14:43:11.326Z,11.33
2019-04-06T14:45:56.473Z,15.13
2019-04-06T14:48:30.427Z,11.97
2019-04-06T14:51:12.042Z,12.00
2019-04-06T14:53:57.129Z,16.20
2019-04-06T14:56:28.745Z,10.47
2019-04-06T14:59:15.834Z,11.33
2019-04-06T15:02:01.034Z,14.23
2019-04-06T15:04:29.283Z,10.90
2019-04-06T15:07:11.171Z,11.53
2019-04-06T15:09:39.675Z,13.07
2019-04-06T15:12:11.828Z,15.40
2019-04-06T15:14:41.487Z,11.93
2019-04-06T15:17:27.110Z,13.10
2019-04-06T15:19:57.123Z,10.93
2019-04-06T15:22:25.352Z,11.13
2019-04-06T15:24:56.729Z,12.83
2019-04-06T15:27:25.122Z,15.90
2019-04-06T15:30:06.926Z,14.67
2019-04-06T15:32:52.064Z,15.17
2019-04-06T15:35:36.880Z,15.00
2019-04-06T15:38:13.853Z,13.63
2019-04-06T15:40:59.042Z,12.40
2019-04-06T15:43:39.244Z,12.40
2019-04-06T15:46:10.740Z,14.17
2019-04-06T15:48:55.609Z,14.00
2019-04-06T15:51:40.476Z,14.10
2019-04-06T15:54:21.124Z,12.23
2019-04-06T15:56:58.437Z,11.93
2019-04-06T15:59:36.031Z,15.00
2019-04-06T16:02:16.168Z,14.40
2019-04-06T16:04:44.641Z,15.33
2019-04-06T16:07:29.483Z,16.23
2019-04-06T16:09:55.447Z,14.57
2019-04-06T16:12:35.923Z,15.50
2019-04-06T16:15:07.634Z,15.23
2019-04-06T16:17:34.133Z,14.13
2019-04-06T16:20:06.520Z,16.00
2019-04-06T16:22:51.267Z,17.00
2019-04-06T16:25:27.194Z,21.87
2019-04-06T16:27:54.186Z,20.33
2019-04-06T16:30:21.113Z,17.90
2019-04-06T16:32:58.144Z,21.27
2019-04-06T16:35:43.769Z,18.50
2019-04-06T16:38:14.695Z,20.23
2019-04-06T16:40:42.789Z,15.83
2019-04-06T16:43:11.454Z,17.43
2019-04-06T16:45:55.402Z,30.47
2019-04-06T16:48:27.810Z,29.67
2019-04-06T16:51:14.460Z,17.47
2019-04-06T16:53:51.802Z,26.07
2019-04-06T16:56:31.001Z,23.47
2019-04-06T16:59:06.396Z,18.23
2019-04-06T17:01:43.870Z,16.47
2019-04-06T17:04:15.737Z,17.10
2019-04-06T17:07:02.030Z,21.03
2019-04-06T17:09:31.799Z,22.80
2019-04-06T17:12:06.053Z,23.80
2019-04-06T17:14:34.718Z,32.00
2019-04-06T17:17:06.332Z,46.57
2019-04-06T17:19:51.791Z,35.97
2019-04-06T17:22:29.378Z,19.70
2019-04-06T17:25:14.128Z,16.67
2019-04-06T17:27:42.456Z,18.60
2019-04-06T17:30:12.205Z,23.80
2019-04-06T17:32:58.116Z,25.17
2019-04-06T17:35:32.731Z,19.90
2019-04-06T17:38:10.151Z,26.20
2019-04-06T17:40:44.599Z,20.87
2019-04-06T17:43:16.285Z,32.27
2019-04-06T17:45:44.950Z,31.87
2019-04-06T17:48:20.372Z,26.80
2019-04-06T17:51:02.223Z,20.27
2019-04-06T17:53:30.922Z,20.03
2019-04-06T17:56:17.354Z,23.90
2019-04-06T17:58:46.330Z,20.20
2019-04-06T18:01:16.247Z,19.30
2019-04-06T18:03:50.542Z,19.93
2019-04-06T18:06:18.872Z,20.70
2019-04-06T18:08:56.097Z,19.43
2019-04-06T18:11:28.670Z,21.43
2019-04-06T18:13:55.159Z,21.90
2019-04-06T18:16:25.534Z,21.70
2019-04-06T18:18:52.182Z,20.30
2019-04-06T18:21:18.716Z,20.47
2019-04-06T18:23:45.047Z,21.20
2019-04-06T18:26:11.693Z,26.23
2019-04-06T18:28:38.072Z,23.13
2019-04-06T18:31:24.771Z,26.43
2019-04-06T18:33:56.303Z,26.43
2019-04-06T18:36:25.901Z,26.37
2019-04-06T18:38:58.805Z,27.47
2019-04-06T18:41:26.289Z,23.00
2019-04-06T18:43:56.865Z,26.93
2019-04-06T18:46:23.589Z,26.67
2019-04-06T18:48:50.259Z,28.40
2019-04-06T18:51:16.901Z,27.93
2019-04-06T18:53:43.732Z,26.20
2019-04-06T18:56:10.818Z,28.93
2019-04-06T18:58:38.044Z,25.10
2019-04-06T19:01:05.485Z,31.50
2019-04-06T19:03:40.432Z,29.30
2019-04-06T19:06:07.131Z,29.23
2019-04-06T19:08:34.301Z,32.67
2019-04-06T19:11:01.248Z,35.37
2019-04-06T19:13:27.654Z,36.23
2019-04-06T19:15:55.088Z,30.17
2019-04-06T19:18:21.433Z,35.43
2019-04-06T19:21:18.632Z,33.33
2019-04-06T19:23:45.063Z,33.97
2019-04-06T19:26:11.786Z,30.47
2019-04-06T19:28:38.116Z,35.07
2019-04-06T19:31:04.779Z,35.37
2019-04-06T19:33:31.542Z,37.97
2019-04-06T19:35:58.740Z,31.60
2019-04-06T19:38:25.600Z,32.77
2019-04-06T19:40:52.230Z,37.30
2019-04-06T19:43:18.867Z,36.37
2019-04-06T19:45:45.207Z,36.87
2019-04-06T19:48:11.910Z,35.40
2019-04-06T19:50:38.800Z,35.47
2019-04-06T19:53:05.735Z,41.50
2019-04-06T19:55:32.472Z,37.87
2019-04-06T19:57:59.775Z,35.90
2019-04-06T20:00:30.961Z,43.33
2019-04-06T20:02:57.879Z,37.67
2019-04-06T20:05:27.853Z,36.57
2019-04-06T20:07:54.278Z,42.50
2019-04-06T20:10:20.610Z,39.00
2019-04-06T20:12:47.079Z,43.03
2019-04-06T20:15:14.248Z,43.47
2019-04-06T20:17:40.744Z,41.03
2019-04-06T20:20:09.343Z,43.20
2019-04-06T20:22:36.532Z,37.57
2019-04-06T20:25:05.406Z,49.13
2019-04-06T20:27:32.181Z,43.97
2019-04-06T20:29:58.747Z,44.67
2019-04-06T20:32:25.171Z,41.87
2019-04-06T20:34:51.716Z,40.93
2019-04-06T20:37:19.439Z,50.20
2019-04-06T20:39:46.114Z,40.97
2019-04-06T20:42:13.764Z,39.23
2019-04-06T20:44:40.937Z,39.83
2019-04-06T20:47:07.637Z,46.47
2019-04-06T20:49:34.311Z,41.10
2019-04-06T20:52:00.720Z,59.63
2019-04-06T20:54:27.451Z,47.73
2019-04-06T20:56:58.052Z,47.77
2019-04-06T20:59:22.933Z,48.50
2019-04-06T21:01:49.736Z,46.37
2019-04-06T21:04:16.690Z,40.77
2019-04-06T21:06:43.690Z,42.70
2019-04-06T21:09:12.874Z,45.83
2019-04-06T21:11:39.423Z,45.07
2019-04-06T21:14:05.922Z,42.70
2019-04-06T21:16:32.255Z,42.17
2019-04-06T21:18:58.983Z,43.07
2019-04-06T21:21:25.881Z,42.13
2019-04-06T21:23:52.963Z,44.43
2019-04-06T21:26:19.693Z,45.97
2019-04-06T21:28:46.554Z,47.93
2019-04-06T21:31:14.208Z,49.43
2019-04-06T21:33:40.957Z,46.50
2019-04-06T21:36:07.314Z,41.53
2019-04-06T21:38:33.647Z,41.30
2019-04-06T21:41:00.095Z,45.50
2019-04-06T21:43:27.785Z,47.63
2019-04-06T21:45:54.852Z,42.17
2019-04-06T21:48:22.377Z,41.57
2019-04-06T21:50:49.162Z,43.67
2019-04-06T21:53:15.785Z,43.43
2019-04-06T21:55:42.285Z,40.83
2019-04-06T21:58:08.691Z,46.33
2019-04-06T22:00:37.077Z,42.43
2019-04-06T22:03:06.121Z,45.10
2019-04-06T22:05:32.991Z,44.17
2019-04-06T22:07:59.490Z,43.53
2019-04-06T22:10:26.474Z,42.47
2019-04-06T22:12:53.444Z,40.60
2019-04-06T22:15:20.222Z,41.47
2019-04-06T22:17:46.738Z,45.00
2019-04-06T22:20:13.126Z,36.97
2019-04-06T22:22:40.456Z,38.40
2019-04-06T22:25:07.462Z,47.53
2019-04-06T22:27:34.558Z,41.50
2019-04-06T22:30:01.626Z,41.40
2019-04-06T22:32:28.876Z,41.20
2019-04-06T22:34:55.684Z,40.70
2019-04-06T22:37:22.452Z,44.90
2019-04-06T22:39:49.092Z,41.83
2019-04-06T22:42:15.470Z,45.57
2019-04-06T22:44:41.834Z,47.33
2019-04-06T22:47:08.178Z,50.50
2019-04-06T22:49:34.933Z,48.47
2019-04-06T22:52:01.345Z,55.93
2019-04-06T22:54:27.766Z,46.77
2019-04-06T22:56:54.408Z,51.73
2019-04-06T22:59:21.188Z,55.40
2019-04-06T23:01:47.522Z,52.37
2019-04-06T23:04:19.325Z,55.87
2019-04-06T23:06:48.258Z,54.90
2019-04-06T23:09:15.039Z,48.50
2019-04-06T23:11:41.442Z,48.20
2019-04-06T23:14:07.745Z,44.10
2019-04-06T23:16:34.502Z,44.43
2019-04-06T23:19:01.585Z,56.40
2019-04-06T23:21:27.971Z,57.57
2019-04-06T23:23:54.294Z,50.77
2019-04-06T23:26:21.397Z,56.20
2019-04-06T23:28:49.066Z,48.93
2019-04-06T23:31:16.277Z,53.57
2019-04-06T23:33:43.132Z,45.70
2019-04-06T23:36:09.967Z,41.90
2019-04-06T23:38:36.532Z,44.07
2019-04-06T23:41:03.974Z,42.97
2019-04-06T23:43:31.152Z,37.90
2019-04-06T23:45:58.036Z,38.40
2019-04-06T23:48:24.686Z,45.53
2019-04-06T23:50:51.625Z,42.40
2019-04-06T23:53:18.021Z,44.30
2019-04-06T23:55:44.601Z,39.43
2019-04-06T23:58:11.070Z,39.03
